createdAt,value
2022-09-15T00:00:33.783Z,79.74
2022-09-15T00:03:01.080Z,79.61
2022-09-15T00:05:28.320Z,79.77
2022-09-15T00:07:55.654Z,79.91
2022-09-15T00:10:22.861Z,81.22
2022-09-15T00:12:50.177Z,81.51
2022-09-15T00:15:17.693Z,81.56
2022-09-15T00:17:49.330Z,81.07
2022-09-15T00:20:17.827Z,80.61
2022-09-15T00:22:45.142Z,80.34
2022-09-15T00:25:12.556Z,81.83
2022-09-15T00:27:39.733Z,82.49
2022-09-15T00:30:07.825Z,82.41
2022-09-15T00:32:35.579Z,82.05
2022-09-15T00:35:02.940Z,81.67
2022-09-15T00:37:30.225Z,81.82
2022-09-15T00:39:57.624Z,82.01
2022-09-15T00:42:24.852Z,81.24
2022-09-15T00:45:02.775Z,81.58
2022-09-15T00:47:35.982Z,81.70
2022-09-15T00:50:11.804Z,82.46
2022-09-15T00:52:48.139Z,82.61
2022-09-15T00:55:26.616Z,81.71
2022-09-15T00:58:04.142Z,81.46
2022-09-15T01:00:31.394Z,81.66
2022-09-15T01:02:59.203Z,81.90
2022-09-15T01:05:30.238Z,81.64
2022-09-15T01:08:02.143Z,81.78
2022-09-15T01:10:30.437Z,82.06
2022-09-15T01:13:00.294Z,82.19
2022-09-15T01:15:46.224Z,82.65
2022-09-15T01:18:26.151Z,81.24
2022-09-15T01:20:59.654Z,82.55
2022-09-15T01:23:51.680Z,83.35
2022-09-15T01:26:55.644Z,83.22
2022-09-15T01:29:26.898Z,82.75
2022-09-15T01:32:39.019Z,82.68
2022-09-15T01:35:06.319Z,83.40
2022-09-15T01:37:38.400Z,83.78
2022-09-15T01:40:06.720Z,84.44
2022-09-15T01:42:34.051Z,84.51
2022-09-15T01:45:04.182Z,84.76
2022-09-15T01:47:31.383Z,84.64
2022-09-15T01:50:09.615Z,84.89
2022-09-15T01:52:36.896Z,84.90
2022-09-15T01:55:07.770Z,84.68
2022-09-15T01:57:35.087Z,84.20
2022-09-15T02:00:02.562Z,83.88
2022-09-15T02:02:48.218Z,84.30
2022-09-15T02:05:25.827Z,83.93
2022-09-15T02:08:05.763Z,83.96
2022-09-15T02:10:59.319Z,83.99
2022-09-15T02:13:42.876Z,84.24
2022-09-15T02:16:16.033Z,84.24
2022-09-15T02:18:45.368Z,84.76
2022-09-15T02:21:21.482Z,85.11
2022-09-15T02:23:51.182Z,84.98
2022-09-15T02:26:20.774Z,85.32
2022-09-15T02:28:47.937Z,85.30
2022-09-15T02:31:15.950Z,84.80
2022-09-15T02:34:03.430Z,84.79
2022-09-15T02:36:30.633Z,84.68
2022-09-15T02:39:03.868Z,84.19
2022-09-15T02:41:31.125Z,84.07
2022-09-15T02:43:58.271Z,83.83
2022-09-15T02:46:25.473Z,83.93
2022-09-15T02:48:53.397Z,84.53
2022-09-15T02:51:20.567Z,84.50
2022-09-15T02:53:47.771Z,84.68
2022-09-15T02:56:16.615Z,84.24
2022-09-15T02:58:43.898Z,83.80
2022-09-15T03:01:15.673Z,83.87
2022-09-15T03:03:43.627Z,84.58
2022-09-15T03:06:17.708Z,84.18
2022-09-15T03:08:48.618Z,84.75
2022-09-15T03:11:16.077Z,84.32
2022-09-15T03:13:43.343Z,84.11
2022-09-15T03:16:11.094Z,84.55
2022-09-15T03:18:38.490Z,83.79
2022-09-15T03:21:06.908Z,83.57
2022-09-15T03:23:34.129Z,83.26
2022-09-15T03:26:01.732Z,83.21
2022-09-15T03:28:28.995Z,83.23
2022-09-15T03:30:56.408Z,83.74
2022-09-15T03:33:24.443Z,83.61
2022-09-15T03:35:51.810Z,83.66
2022-09-15T03:38:19.058Z,83.68
2022-09-15T03:40:59.367Z,83.79
2022-09-15T03:43:27.209Z,83.66
2022-09-15T03:45:55.104Z,83.45
2022-09-15T03:48:23.591Z,83.14
2022-09-15T03:50:51.148Z,83.49
2022-09-15T03:53:18.556Z,83.71
2022-09-15T03:55:46.051Z,84.04
2022-09-15T03:58:13.426Z,84.42
2022-09-15T04:00:41.392Z,84.44
2022-09-15T04:03:08.755Z,84.26
2022-09-15T04:05:36.193Z,84.54
2022-09-15T04:08:03.459Z,85.25
2022-09-15T04:10:30.844Z,84.78
2022-09-15T04:12:58.073Z,85.11
2022-09-15T04:15:25.324Z,84.87
2022-09-15T04:17:52.547Z,84.87
2022-09-15T04:20:20.122Z,85.77
2022-09-15T04:22:47.403Z,85.82
2022-09-15T04:25:14.907Z,85.35
2022-09-15T04:27:42.194Z,85.70
2022-09-15T04:30:09.794Z,85.84
2022-09-15T04:32:37.204Z,85.75
2022-09-15T04:35:04.905Z,85.50
2022-09-15T04:37:32.310Z,85.68
2022-09-15T04:39:59.768Z,85.73
2022-09-15T04:42:27.691Z,86.28
2022-09-15T04:44:54.887Z,86.01
2022-09-15T04:47:22.195Z,86.88
2022-09-15T04:49:49.338Z,86.98
2022-09-15T04:52:16.740Z,87.01
2022-09-15T04:54:44.024Z,86.61
2022-09-15T04:57:11.440Z,86.83
2022-09-15T04:59:39.165Z,86.35
2022-09-15T05:02:06.556Z,86.12
2022-09-15T05:04:35.135Z,86.46
2022-09-15T05:07:03.025Z,86.28
2022-09-15T05:09:31.310Z,85.95
2022-09-15T05:11:58.893Z,86.26
2022-09-15T05:14:26.655Z,85.72
2022-09-15T05:16:57.678Z,86.18
2022-09-15T05:19:35.624Z,86.16
2022-09-15T05:22:03.372Z,86.09
2022-09-15T05:24:59.670Z,85.75
2022-09-15T05:27:29.371Z,85.90
2022-09-15T05:30:09.952Z,86.02
2022-09-15T05:32:44.461Z,86.27
2022-09-15T05:35:13.033Z,86.08
2022-09-15T05:37:40.686Z,86.00
2022-09-15T05:40:08.928Z,85.71
2022-09-15T05:42:37.051Z,85.97
2022-09-15T05:45:04.512Z,86.86
2022-09-15T05:47:31.835Z,86.81
2022-09-15T05:49:59.665Z,86.44
2022-09-15T05:52:27.270Z,86.22
2022-09-15T05:54:58.823Z,85.98
2022-09-15T05:57:27.220Z,85.85
2022-09-15T05:59:55.267Z,85.98
2022-09-15T06:02:22.880Z,85.48
2022-09-15T06:04:50.145Z,85.38
2022-09-15T06:07:32.698Z,85.40
2022-09-15T06:10:01.424Z,85.24
2022-09-15T06:12:28.671Z,85.73
2022-09-15T06:15:12.872Z,85.85
2022-09-15T06:17:43.221Z,85.95
2022-09-15T06:20:35.053Z,85.68
2022-09-15T06:23:03.378Z,85.83
2022-09-15T06:25:30.754Z,85.69
2022-09-15T06:27:58.175Z,85.71
2022-09-15T06:30:26.173Z,85.37
2022-09-15T06:32:57.174Z,85.06
2022-09-15T06:35:25.221Z,84.73
2022-09-15T06:37:52.651Z,84.71
2022-09-15T06:40:20.525Z,84.00
2022-09-15T06:42:48.362Z,83.15
2022-09-15T06:45:15.842Z,82.64
2022-09-15T06:47:43.479Z,82.58
2022-09-15T06:50:11.299Z,82.26
2022-09-15T06:52:38.888Z,82.06
2022-09-15T06:55:06.639Z,79.88
2022-09-15T06:57:34.356Z,81.44
2022-09-15T07:00:02.834Z,82.34
2022-09-15T07:02:31.610Z,83.21
2022-09-15T07:05:00.680Z,84.11
2022-09-15T07:07:30.163Z,83.31
2022-09-15T07:10:00.567Z,83.81
2022-09-15T07:12:32.656Z,82.89
2022-09-15T07:15:00.284Z,82.82
2022-09-15T07:17:30.904Z,81.99
2022-09-15T07:19:59.077Z,82.12
2022-09-15T07:22:27.203Z,81.95
2022-09-15T07:24:55.488Z,81.70
2022-09-15T07:27:43.991Z,81.22
2022-09-15T07:30:12.291Z,80.94
2022-09-15T07:32:40.957Z,81.08
2022-09-15T07:35:08.836Z,80.61
2022-09-15T07:37:36.260Z,80.11
2022-09-15T07:40:04.278Z,80.10
2022-09-15T07:42:35.391Z,79.56
2022-09-15T07:45:03.229Z,79.30
2022-09-15T07:47:31.923Z,78.52
2022-09-15T07:50:02.608Z,79.01
2022-09-15T07:52:31.127Z,78.83
2022-09-15T07:54:58.513Z,78.60
2022-09-15T07:57:38.901Z,77.28
2022-09-15T08:00:12.397Z,76.40
2022-09-15T08:05:26.642Z,74.42
2022-09-15T08:07:57.884Z,73.02
2022-09-15T08:10:27.603Z,73.64
2022-09-15T08:12:59.337Z,74.85
2022-09-15T08:15:27.562Z,73.89
2022-09-15T08:17:57.799Z,73.21
2022-09-15T08:20:32.987Z,73.51
2022-09-15T08:23:01.244Z,72.05
2022-09-15T08:25:30.198Z,71.58
2022-09-15T08:27:59.710Z,69.14
2022-09-15T08:30:28.210Z,69.76
2022-09-15T08:32:55.646Z,70.50
2022-09-15T08:35:23.628Z,69.89
2022-09-15T08:37:54.379Z,68.62
2022-09-15T08:40:26.219Z,68.34
2022-09-15T08:42:55.545Z,67.79
2022-09-15T08:45:25.095Z,66.84
2022-09-15T08:47:56.294Z,65.58
2022-09-15T08:50:31.335Z,64.92
2022-09-15T08:53:15.609Z,65.56
2022-09-15T08:55:56.033Z,64.49
2022-09-15T08:58:29.379Z,65.37
2022-09-15T09:01:17.396Z,63.50
2022-09-15T09:04:03.691Z,63.17
2022-09-15T09:06:45.484Z,61.62
2022-09-15T09:09:18.844Z,62.47
2022-09-15T09:12:17.555Z,62.54
2022-09-15T09:14:58.938Z,63.10
2022-09-15T09:17:58.247Z,64.15
2022-09-15T09:20:42.263Z,65.74
2022-09-15T09:23:13.386Z,65.05
2022-09-15T09:25:53.722Z,64.57
2022-09-15T09:28:30.058Z,63.80
2022-09-15T09:31:01.613Z,64.37
2022-09-15T09:33:34.934Z,63.06
2022-09-15T09:36:02.696Z,62.69
2022-09-15T09:38:38.500Z,61.43
2022-09-15T09:41:36.510Z,61.59
2022-09-15T09:44:06.064Z,62.95
2022-09-15T09:46:34.166Z,62.65
2022-09-15T09:49:21.218Z,62.65
2022-09-15T09:51:56.051Z,63.00
2022-09-15T09:54:27.509Z,64.14
2022-09-15T09:56:58.116Z,62.82
2022-09-15T09:59:39.954Z,63.35
2022-09-15T10:02:21.546Z,64.86
2022-09-15T10:05:21.061Z,65.52
2022-09-15T10:08:04.514Z,66.03
2022-09-15T10:10:50.121Z,65.85
2022-09-15T10:13:58.794Z,65.62
2022-09-15T10:16:49.852Z,65.36
2022-09-15T10:19:58.894Z,66.72
2022-09-15T10:22:47.143Z,67.66
2022-09-15T10:25:49.290Z,68.02
2022-09-15T10:28:27.248Z,67.63
2022-09-15T10:31:40.832Z,68.82
2022-09-15T10:34:29.855Z,69.80
2022-09-15T10:37:56.360Z,71.01
2022-09-15T10:40:44.909Z,71.56
2022-09-15T10:43:42.548Z,71.18
2022-09-15T10:46:21.305Z,71.67
2022-09-15T10:49:12.761Z,71.82
2022-09-15T10:51:59.279Z,71.99
2022-09-15T10:54:40.874Z,70.95
2022-09-15T10:57:40.139Z,70.48
2022-09-15T11:00:16.464Z,70.66
2022-09-15T11:03:17.923Z,69.69
2022-09-15T11:06:35.847Z,69.61
2022-09-15T11:09:19.426Z,68.73
2022-09-15T11:12:00.235Z,68.29
2022-09-15T11:14:47.362Z,67.62
2022-09-15T11:17:36.163Z,67.56
2022-09-15T11:20:12.883Z,67.43
2022-09-15T11:22:49.730Z,67.85
2022-09-15T11:25:25.211Z,67.15
2022-09-15T11:27:57.564Z,66.91
2022-09-15T11:30:26.954Z,66.77
2022-09-15T11:33:19.377Z,67.29
2022-09-15T11:36:03.640Z,67.37
2022-09-15T11:38:48.310Z,66.51
2022-09-15T11:41:38.747Z,66.41
2022-09-15T11:44:34.134Z,66.52
2022-09-15T11:47:05.053Z,66.56
2022-09-15T11:49:49.115Z,66.35
2022-09-15T11:52:35.790Z,67.04
2022-09-15T11:55:22.530Z,68.51
2022-09-15T11:58:21.057Z,68.83
2022-09-15T12:01:07.401Z,69.16
2022-09-15T12:03:39.481Z,69.18
2022-09-15T12:06:10.163Z,70.19
2022-09-15T12:08:41.262Z,71.61
2022-09-15T12:11:12.352Z,73.20
2022-09-15T12:13:40.860Z,75.25
2022-09-15T12:16:08.372Z,80.46
2022-09-15T12:18:44.949Z,85.40
2022-09-15T12:21:22.971Z,86.53
2022-09-15T12:24:08.997Z,87.34
2022-09-15T15:07:05.222Z,86.41
2022-09-15T15:09:38.331Z,85.84
2022-09-15T15:12:19.464Z,86.42
2022-09-15T15:14:47.558Z,85.99
2022-09-15T15:17:44.081Z,86.01
2022-09-15T15:20:14.640Z,86.03
2022-09-15T15:22:44.802Z,86.21
2022-09-15T15:25:31.385Z,86.04
2022-09-15T15:28:00.761Z,86.02
2022-09-15T15:30:32.769Z,85.95
2022-09-15T15:33:05.753Z,85.72
2022-09-15T15:35:41.179Z,86.25
2022-09-15T15:38:11.998Z,86.00
2022-09-15T15:40:40.965Z,86.11
2022-09-15T15:43:26.483Z,85.76
2022-09-15T15:46:02.009Z,85.75
2022-09-15T15:48:38.053Z,86.51
2022-09-15T15:51:16.460Z,86.40
2022-09-15T15:53:44.986Z,86.17
2022-09-15T15:56:20.691Z,86.99
2022-09-15T15:58:57.211Z,86.95
2022-09-15T16:01:31.547Z,86.73
2022-09-15T16:04:02.200Z,86.45
2022-09-15T16:06:40.992Z,86.39
2022-09-15T16:09:12.486Z,86.76
2022-09-15T16:11:53.303Z,86.50
2022-09-15T16:14:27.968Z,86.29
2022-09-15T16:17:11.696Z,86.53
2022-09-15T16:19:54.195Z,86.53
2022-09-15T16:22:27.959Z,86.68
2022-09-15T16:25:01.789Z,86.87
2022-09-15T16:27:35.357Z,87.01
2022-09-15T16:30:14.164Z,86.98
2022-09-15T16:32:44.722Z,86.30
2022-09-15T16:35:51.487Z,85.99
2022-09-15T16:38:32.196Z,86.56
2022-09-15T16:41:16.597Z,86.53
2022-09-15T16:43:56.836Z,86.66
2022-09-15T16:46:32.685Z,86.61
2022-09-15T16:49:12.640Z,87.03
2022-09-15T16:51:49.449Z,86.87
2022-09-15T16:54:25.194Z,87.33
2022-09-15T16:57:01.003Z,87.28
2022-09-15T16:59:40.030Z,87.18
2022-09-15T17:02:19.612Z,87.03
2022-09-15T17:04:55.533Z,87.11
2022-09-15T17:07:32.539Z,87.33
2022-09-15T17:10:18.804Z,87.08
2022-09-15T17:12:53.497Z,87.32
2022-09-15T17:15:33.738Z,87.39
2022-09-15T17:18:07.523Z,86.61
2022-09-15T17:20:48.690Z,87.01
2022-09-15T17:23:26.510Z,86.88
2022-09-15T17:26:24.626Z,86.58
2022-09-15T17:29:06.220Z,85.83
2022-09-15T17:31:38.468Z,85.65
2022-09-15T17:34:18.259Z,86.01
2022-09-15T17:36:57.555Z,85.92
2022-09-15T17:39:34.354Z,85.52
2022-09-15T17:42:13.210Z,85.36
2022-09-15T17:45:01.699Z,85.53
2022-09-15T17:47:49.742Z,85.67
2022-09-15T17:50:26.093Z,85.46
2022-09-15T17:53:02.213Z,85.56
2022-09-15T17:55:34.667Z,86.10
2022-09-15T17:58:15.354Z,86.10
2022-09-15T18:04:14.283Z,87.06
2022-09-15T18:06:58.037Z,86.61
2022-09-15T18:09:39.064Z,85.76
2022-09-15T18:12:22.835Z,84.51
2022-09-15T18:15:15.694Z,83.59
2022-09-15T18:17:43.866Z,82.36
2022-09-15T18:23:46.371Z,80.89
2022-09-15T18:26:16.889Z,80.34
2022-09-15T18:28:50.182Z,79.68
2022-09-15T18:31:32.314Z,80.46
2022-09-15T18:34:04.257Z,78.52
2022-09-15T18:36:35.401Z,80.21
2022-09-15T18:39:12.229Z,81.32
2022-09-15T18:41:44.477Z,82.12
2022-09-15T18:44:20.086Z,81.95
2022-09-15T18:46:55.337Z,82.11
2022-09-15T18:49:35.653Z,82.37
2022-09-15T18:52:07.258Z,82.72
2022-09-15T18:54:43.415Z,83.18
2022-09-15T18:57:29.786Z,83.56
2022-09-15T19:00:02.189Z,82.12
2022-09-15T19:02:32.899Z,82.26
2022-09-15T19:05:13.593Z,83.57
2022-09-15T19:07:46.243Z,83.78
2022-09-15T19:10:20.569Z,84.35
2022-09-15T19:12:58.120Z,85.40
2022-09-15T19:15:30.248Z,85.51
2022-09-15T19:18:02.230Z,84.30
2022-09-15T19:20:45.362Z,84.49
2022-09-15T19:23:16.159Z,84.98
2022-09-15T19:25:49.259Z,84.90
2022-09-15T19:28:21.613Z,84.45
2022-09-15T19:30:58.300Z,84.05
2022-09-15T19:33:34.646Z,84.16
2022-09-15T19:36:29.071Z,85.10
2022-09-15T19:39:15.033Z,85.17
2022-09-15T19:41:43.004Z,85.69
2022-09-15T19:44:16.320Z,85.76
2022-09-15T19:46:50.515Z,85.13
2022-09-15T19:49:22.122Z,85.41
2022-09-15T19:52:00.900Z,85.16
2022-09-15T19:54:32.327Z,85.62
2022-09-15T19:57:05.068Z,85.57
2022-09-15T19:59:36.784Z,85.47
2022-09-15T20:02:12.279Z,86.34
2022-09-15T20:04:45.610Z,87.09
2022-09-15T20:07:21.542Z,87.64
2022-09-15T20:09:55.368Z,87.62
2022-09-15T20:12:31.345Z,87.02
2022-09-15T20:15:07.192Z,87.00
2022-09-15T20:17:43.658Z,86.75
2022-09-15T20:20:17.223Z,86.61
2022-09-15T20:22:48.381Z,86.94
2022-09-15T20:25:21.675Z,87.15
2022-09-15T20:27:56.005Z,86.36
2022-09-15T21:04:03.506Z,87.16
2022-09-15T21:06:38.117Z,86.85
2022-09-15T21:09:10.938Z,86.62
2022-09-15T21:11:43.674Z,87.07
2022-09-15T21:14:33.256Z,87.60
2022-09-15T21:17:11.572Z,86.97
2022-09-15T21:19:46.517Z,86.64
2022-09-15T21:22:16.937Z,86.63
2022-09-15T21:24:48.936Z,86.65
2022-09-15T21:27:30.196Z,86.37
2022-09-15T21:30:08.769Z,86.41
2022-09-15T21:32:43.056Z,86.70
2022-09-15T21:35:22.754Z,87.55
2022-09-15T21:38:06.687Z,87.97
2022-09-15T21:40:50.119Z,87.54
2022-09-15T21:43:21.934Z,86.89
2022-09-15T21:45:58.715Z,86.80
2022-09-15T21:48:30.123Z,87.28
2022-09-15T21:51:03.331Z,87.30
2022-09-15T21:53:36.639Z,87.64
2022-09-15T21:56:15.278Z,87.54
2022-09-15T21:58:58.000Z,87.33
2022-09-15T22:01:31.642Z,87.44
2022-09-15T22:04:07.669Z,87.60
2022-09-15T22:06:44.052Z,87.45
2022-09-15T22:09:26.004Z,87.57
2022-09-15T22:12:01.542Z,86.95
2022-09-15T22:14:29.437Z,88.13
2022-09-15T22:17:07.001Z,88.41
2022-09-15T22:19:45.872Z,87.67
2022-09-15T22:22:25.885Z,87.99
2022-09-15T22:25:21.160Z,88.95
2022-09-15T22:28:09.541Z,89.45
2022-09-15T22:30:45.425Z,90.07
2022-09-15T22:33:21.062Z,90.06
2022-09-15T22:35:56.008Z,90.23
2022-09-15T22:38:32.154Z,90.15
2022-09-15T22:41:18.265Z,89.55
2022-09-15T22:43:52.073Z,89.78
2022-09-15T22:46:25.034Z,90.12
2022-09-15T22:49:00.249Z,90.23
2022-09-15T22:51:36.843Z,90.39
2022-09-15T22:54:10.180Z,90.37
2022-09-15T22:56:41.435Z,89.11
2022-09-15T22:59:17.323Z,89.53
2022-09-15T23:02:03.223Z,89.95
2022-09-15T23:04:37.875Z,89.67
2022-09-15T23:07:11.615Z,89.34
2022-09-15T23:09:55.860Z,89.43
2022-09-15T23:12:32.658Z,89.53
2022-09-15T23:15:05.316Z,89.24
2022-09-15T23:17:39.258Z,88.67
2022-09-15T23:20:14.663Z,88.53
2022-09-15T23:22:47.910Z,88.65
2022-09-15T23:25:20.963Z,89.48
2022-09-15T23:27:55.723Z,89.72
2022-09-15T23:30:29.079Z,90.03
2022-09-15T23:33:09.800Z,90.25
2022-09-15T23:35:47.656Z,90.09
2022-09-15T23:38:23.353Z,89.91
2022-09-15T23:41:04.420Z,89.61
2022-09-15T23:43:40.612Z,89.78
2022-09-15T23:46:17.721Z,89.55
2022-09-15T23:48:49.895Z,89.49
2022-09-15T23:51:24.361Z,89.33
2022-09-15T23:53:59.106Z,89.66
2022-09-15T23:56:31.702Z,89.86
2022-09-15T23:59:03.580Z,89.45
